sensor_id;sensor_type;location;lat;lon;timestamp;P1;durP1;ratioP1;P2;durP2;ratioP2
46230;SDS011;31949;51.404;-0.038;2022-07-10T00:00:52;4.50;;;1.83;;
46230;SDS011;31949;51.404;-0.038;2022-07-10T00:03:20;2.33;;;1.70;;
46230;SDS011;31949;51.404;-0.038;2022-07-10T00:05:47;2.28;;;1.83;;
46230;SDS011;31949;51.404;-0.038;2022-07-10T00:08:16;3.35;;;2.13;;
46230;SDS011;31949;51.404;-0.038;2022-07-10T00:10:43;4.32;;;1.83;;
46230;SDS011;31949;51.404;-0.038;2022-07-10T00:13:10;2.55;;;2.03;;
46230;SDS011;31949;51.404;-0.038;2022-07-10T00:15:37;2.67;;;2.00;;
46230;SDS011;31949;51.404;-0.038;2022-07-10T00:18:04;2.42;;;1.95;;
46230;SDS011;31949;51.404;-0.038;2022-07-10T00:20:32;2.78;;;2.45;;
46230;SDS011;31949;51.404;-0.038;2022-07-10T00:23:00;2.13;;;1.55;;
46230;SDS011;31949;51.404;-0.038;2022-07-10T00:25:28;2.28;;;2.08;;
46230;SDS011;31949;51.404;-0.038;2022-07-10T00:27:55;3.90;;;1.65;;
46230;SDS011;31949;51.404;-0.038;2022-07-10T00:30:22;2.80;;;1.85;;
46230;SDS011;31949;51.404;-0.038;2022-07-10T00:32:50;2.55;;;1.42;;
46230;SDS011;31949;51.404;-0.038;2022-07-10T00:35:17;2.25;;;1.77;;
46230;SDS011;31949;51.404;-0.038;2022-07-10T00:37:44;5.50;;;2.63;;
46230;SDS011;31949;51.404;-0.038;2022-07-10T00:40:11;2.92;;;1.85;;
46230;SDS011;31949;51.404;-0.038;2022-07-10T00:42:38;3.53;;;2.08;;
46230;SDS011;31949;51.404;-0.038;2022-07-10T00:45:06;2.83;;;2.15;;
46230;SDS011;31949;51.404;-0.038;2022-07-10T00:47:33;3.78;;;2.03;;
46230;SDS011;31949;51.404;-0.038;2022-07-10T00:50:00;2.45;;;1.55;;
46230;SDS011;31949;51.404;-0.038;2022-07-10T00:52:28;2.47;;;2.00;;
46230;SDS011;31949;51.404;-0.038;2022-07-10T00:54:56;3.83;;;2.35;;
46230;SDS011;31949;51.404;-0.038;2022-07-10T00:57:23;2.33;;;2.03;;
46230;SDS011;31949;51.404;-0.038;2022-07-10T00:59:51;3.33;;;2.10;;
46230;SDS011;31949;51.404;-0.038;2022-07-10T01:02:19;5.03;;;2.00;;
46230;SDS011;31949;51.404;-0.038;2022-07-10T01:04:46;3.67;;;2.10;;
46230;SDS011;31949;51.404;-0.038;2022-07-10T01:07:14;5.00;;;2.05;;
46230;SDS011;31949;51.404;-0.038;2022-07-10T01:09:42;2.53;;;2.30;;
46230;SDS011;31949;51.404;-0.038;2022-07-10T01:12:10;4.70;;;2.47;;
46230;SDS011;31949;51.404;-0.038;2022-07-10T01:14:38;6.38;;;2.55;;
46230;SDS011;31949;51.404;-0.038;2022-07-10T01:17:07;2.08;;;1.75;;
46230;SDS011;31949;51.404;-0.038;2022-07-10T01:19:35;3.22;;;2.00;;
46230;SDS011;31949;51.404;-0.038;2022-07-10T01:22:03;5.43;;;2.33;;
46230;SDS011;31949;51.404;-0.038;2022-07-10T01:24:30;2.78;;;1.63;;
46230;SDS011;31949;51.404;-0.038;2022-07-10T01:26:57;3.78;;;1.98;;
46230;SDS011;31949;51.404;-0.038;2022-07-10T01:29:25;5.18;;;1.80;;
46230;SDS011;31949;51.404;-0.038;2022-07-10T01:31:52;2.17;;;1.83;;
46230;SDS011;31949;51.404;-0.038;2022-07-10T01:34:22;2.75;;;1.95;;
46230;SDS011;31949;51.404;-0.038;2022-07-10T01:36:50;2.55;;;2.33;;
46230;SDS011;31949;51.404;-0.038;2022-07-10T01:39:17;3.20;;;2.13;;
46230;SDS011;31949;51.404;-0.038;2022-07-10T01:41:44;2.00;;;1.80;;
46230;SDS011;31949;51.404;-0.038;2022-07-10T01:44:12;3.78;;;2.25;;
46230;SDS011;31949;51.404;-0.038;2022-07-10T01:46:43;3.40;;;2.08;;
46230;SDS011;31949;51.404;-0.038;2022-07-10T01:49:13;2.60;;;1.80;;
46230;SDS011;31949;51.404;-0.038;2022-07-10T01:51:41;3.05;;;1.92;;
46230;SDS011;31949;51.404;-0.038;2022-07-10T01:54:08;2.85;;;2.03;;
46230;SDS011;31949;51.404;-0.038;2022-07-10T01:56:35;2.42;;;2.05;;
46230;SDS011;31949;51.404;-0.038;2022-07-10T01:59:03;2.88;;;2.10;;
46230;SDS011;31949;51.404;-0.038;2022-07-10T02:01:30;3.92;;;1.83;;
46230;SDS011;31949;51.404;-0.038;2022-07-10T02:03:58;3.28;;;2.35;;
46230;SDS011;31949;51.404;-0.038;2022-07-10T02:06:43;4.18;;;2.13;;
46230;SDS011;31949;51.404;-0.038;2022-07-10T02:09:11;2.95;;;1.92;;
46230;SDS011;31949;51.404;-0.038;2022-07-10T02:11:38;1.85;;;1.52;;
46230;SDS011;31949;51.404;-0.038;2022-07-10T02:14:05;4.40;;;2.60;;
46230;SDS011;31949;51.404;-0.038;2022-07-10T02:16:34;2.63;;;1.98;;
46230;SDS011;31949;51.404;-0.038;2022-07-10T02:19:02;3.05;;;2.17;;
46230;SDS011;31949;51.404;-0.038;2022-07-10T02:21:30;3.97;;;2.65;;
46230;SDS011;31949;51.404;-0.038;2022-07-10T02:23:57;5.97;;;2.38;;
46230;SDS011;31949;51.404;-0.038;2022-07-10T02:26:24;5.15;;;2.17;;
46230;SDS011;31949;51.404;-0.038;2022-07-10T02:28:51;4.00;;;1.75;;
46230;SDS011;31949;51.404;-0.038;2022-07-10T02:31:18;2.55;;;2.00;;
46230;SDS011;31949;51.404;-0.038;2022-07-10T02:33:46;4.07;;;1.92;;
46230;SDS011;31949;51.404;-0.038;2022-07-10T02:36:13;4.38;;;2.50;;
46230;SDS011;31949;51.404;-0.038;2022-07-10T02:38:40;3.05;;;2.42;;
46230;SDS011;31949;51.404;-0.038;2022-07-10T02:41:08;2.88;;;2.28;;
46230;SDS011;31949;51.404;-0.038;2022-07-10T02:43:35;3.05;;;2.25;;
46230;SDS011;31949;51.404;-0.038;2022-07-10T02:46:02;2.67;;;2.05;;
46230;SDS011;31949;51.404;-0.038;2022-07-10T02:48:29;4.03;;;2.00;;
46230;SDS011;31949;51.404;-0.038;2022-07-10T02:50:56;5.25;;;1.95;;
46230;SDS011;31949;51.404;-0.038;2022-07-10T02:53:23;4.32;;;1.85;;
46230;SDS011;31949;51.404;-0.038;2022-07-10T02:55:51;2.58;;;1.80;;
46230;SDS011;31949;51.404;-0.038;2022-07-10T02:58:18;4.70;;;2.10;;
46230;SDS011;31949;51.404;-0.038;2022-07-10T03:00:46;3.63;;;1.90;;
46230;SDS011;31949;51.404;-0.038;2022-07-10T03:03:13;2.65;;;2.10;;
46230;SDS011;31949;51.404;-0.038;2022-07-10T03:05:40;3.88;;;2.05;;
46230;SDS011;31949;51.404;-0.038;2022-07-10T03:08:07;4.45;;;2.65;;
46230;SDS011;31949;51.404;-0.038;2022-07-10T03:10:34;3.80;;;2.67;;
46230;SDS011;31949;51.404;-0.038;2022-07-10T03:13:02;2.80;;;2.20;;
46230;SDS011;31949;51.404;-0.038;2022-07-10T03:15:29;2.75;;;2.53;;
46230;SDS011;31949;51.404;-0.038;2022-07-10T03:17:57;3.30;;;2.67;;
46230;SDS011;31949;51.404;-0.038;2022-07-10T03:20:24;5.63;;;3.30;;
46230;SDS011;31949;51.404;-0.038;2022-07-10T03:22:51;3.10;;;2.80;;
46230;SDS011;31949;51.404;-0.038;2022-07-10T03:25:18;2.58;;;2.38;;
46230;SDS011;31949;51.404;-0.038;2022-07-10T03:27:45;4.10;;;2.80;;
46230;SDS011;31949;51.404;-0.038;2022-07-10T03:30:13;3.38;;;2.88;;
46230;SDS011;31949;51.404;-0.038;2022-07-10T03:32:40;2.92;;;2.25;;
46230;SDS011;31949;51.404;-0.038;2022-07-10T03:35:07;4.10;;;2.92;;
46230;SDS011;31949;51.404;-0.038;2022-07-10T03:37:34;2.88;;;2.38;;
46230;SDS011;31949;51.404;-0.038;2022-07-10T03:40:01;2.38;;;2.15;;
46230;SDS011;31949;51.404;-0.038;2022-07-10T03:42:29;2.83;;;2.17;;
46230;SDS011;31949;51.404;-0.038;2022-07-10T03:44:56;3.33;;;2.10;;
46230;SDS011;31949;51.404;-0.038;2022-07-10T03:47:23;3.88;;;2.45;;
46230;SDS011;31949;51.404;-0.038;2022-07-10T03:49:50;3.67;;;2.55;;
46230;SDS011;31949;51.404;-0.038;2022-07-10T03:52:17;3.13;;;2.80;;
46230;SDS011;31949;51.404;-0.038;2022-07-10T03:54:44;4.15;;;2.50;;
46230;SDS011;31949;51.404;-0.038;2022-07-10T03:57:12;3.58;;;2.20;;
46230;SDS011;31949;51.404;-0.038;2022-07-10T03:59:57;2.50;;;2.20;;
46230;SDS011;31949;51.404;-0.038;2022-07-10T04:02:24;4.03;;;2.30;;
46230;SDS011;31949;51.404;-0.038;2022-07-10T04:04:51;3.67;;;2.40;;
46230;SDS011;31949;51.404;-0.038;2022-07-10T04:07:19;2.58;;;2.05;;
46230;SDS011;31949;51.404;-0.038;2022-07-10T04:09:46;4.30;;;2.00;;
46230;SDS011;31949;51.404;-0.038;2022-07-10T04:12:13;3.08;;;1.58;;
46230;SDS011;31949;51.404;-0.038;2022-07-10T04:14:40;2.15;;;1.75;;
46230;SDS011;31949;51.404;-0.038;2022-07-10T04:17:07;2.47;;;1.60;;
46230;SDS011;31949;51.404;-0.038;2022-07-10T04:19:35;2.45;;;1.65;;
46230;SDS011;31949;51.404;-0.038;2022-07-10T04:22:02;2.00;;;1.50;;
46230;SDS011;31949;51.404;-0.038;2022-07-10T04:24:29;1.40;;;1.30;;
46230;SDS011;31949;51.404;-0.038;2022-07-10T04:26:56;3.25;;;1.90;;
46230;SDS011;31949;51.404;-0.038;2022-07-10T04:29:24;3.03;;;1.70;;
46230;SDS011;31949;51.404;-0.038;2022-07-10T04:31:51;3.10;;;1.35;;
46230;SDS011;31949;51.404;-0.038;2022-07-10T04:34:18;2.35;;;2.00;;
46230;SDS011;31949;51.404;-0.038;2022-07-10T04:36:45;2.83;;;1.63;;
46230;SDS011;31949;51.404;-0.038;2022-07-10T04:39:12;2.47;;;1.75;;
46230;SDS011;31949;51.404;-0.038;2022-07-10T04:41:39;3.67;;;1.70;;
46230;SDS011;31949;51.404;-0.038;2022-07-10T04:44:07;1.90;;;1.30;;
46230;SDS011;31949;51.404;-0.038;2022-07-10T04:46:34;2.08;;;1.40;;
46230;SDS011;31949;51.404;-0.038;2022-07-10T04:49:01;2.67;;;1.42;;
46230;SDS011;31949;51.404;-0.038;2022-07-10T04:51:28;1.38;;;1.27;;
46230;SDS011;31949;51.404;-0.038;2022-07-10T04:53:55;3.22;;;1.70;;
46230;SDS011;31949;51.404;-0.038;2022-07-10T04:56:22;3.03;;;1.40;;
46230;SDS011;31949;51.404;-0.038;2022-07-10T04:58:49;2.25;;;1.15;;
46230;SDS011;31949;51.404;-0.038;2022-07-10T05:01:18;3.15;;;1.65;;
46230;SDS011;31949;51.404;-0.038;2022-07-10T05:03:47;1.60;;;1.48;;
46230;SDS011;31949;51.404;-0.038;2022-07-10T05:06:14;1.50;;;1.38;;
46230;SDS011;31949;51.404;-0.038;2022-07-10T05:08:41;1.73;;;1.27;;
46230;SDS011;31949;51.404;-0.038;2022-07-10T05:11:09;2.03;;;1.17;;
46230;SDS011;31949;51.404;-0.038;2022-07-10T05:13:37;1.50;;;1.17;;
46230;SDS011;31949;51.404;-0.038;2022-07-10T05:16:05;2.97;;;1.42;;
46230;SDS011;31949;51.404;-0.038;2022-07-10T05:18:32;1.33;;;1.23;;
46230;SDS011;31949;51.404;-0.038;2022-07-10T05:21:00;2.17;;;1.30;;
46230;SDS011;31949;51.404;-0.038;2022-07-10T05:23:27;1.92;;;1.63;;
46230;SDS011;31949;51.404;-0.038;2022-07-10T05:25:54;1.88;;;1.77;;
46230;SDS011;31949;51.404;-0.038;2022-07-10T05:28:21;1.15;;;0.98;;
46230;SDS011;31949;51.404;-0.038;2022-07-10T05:30:48;2.75;;;1.10;;
46230;SDS011;31949;51.404;-0.038;2022-07-10T05:33:16;2.50;;;1.35;;
46230;SDS011;31949;51.404;-0.038;2022-07-10T05:35:43;4.30;;;1.05;;
46230;SDS011;31949;51.404;-0.038;2022-07-10T05:38:11;3.28;;;1.17;;
46230;SDS011;31949;51.404;-0.038;2022-07-10T05:40:38;4.28;;;1.27;;
46230;SDS011;31949;51.404;-0.038;2022-07-10T05:43:05;2.13;;;1.00;;
46230;SDS011;31949;51.404;-0.038;2022-07-10T05:45:33;1.77;;;0.93;;
46230;SDS011;31949;51.404;-0.038;2022-07-10T05:48:00;3.78;;;1.15;;
46230;SDS011;31949;51.404;-0.038;2022-07-10T05:50:27;3.17;;;1.42;;
46230;SDS011;31949;51.404;-0.038;2022-07-10T05:52:54;3.53;;;1.25;;
46230;SDS011;31949;51.404;-0.038;2022-07-10T05:55:21;2.28;;;0.98;;
46230;SDS011;31949;51.404;-0.038;2022-07-10T05:57:49;5.03;;;1.20;;
46230;SDS011;31949;51.404;-0.038;2022-07-10T06:00:16;2.35;;;1.10;;
46230;SDS011;31949;51.404;-0.038;2022-07-10T06:02:44;2.33;;;1.10;;
46230;SDS011;31949;51.404;-0.038;2022-07-10T06:05:11;2.63;;;1.40;;
46230;SDS011;31949;51.404;-0.038;2022-07-10T06:07:38;3.88;;;1.17;;
46230;SDS011;31949;51.404;-0.038;2022-07-10T06:10:05;2.13;;;1.13;;
46230;SDS011;31949;51.404;-0.038;2022-07-10T06:12:33;3.90;;;1.42;;
46230;SDS011;31949;51.404;-0.038;2022-07-10T06:15:00;3.20;;;1.30;;
46230;SDS011;31949;51.404;-0.038;2022-07-10T06:17:27;2.80;;;1.55;;
46230;SDS011;31949;51.404;-0.038;2022-07-10T06:19:54;3.47;;;1.35;;
46230;SDS011;31949;51.404;-0.038;2022-07-10T06:22:22;2.88;;;0.85;;
46230;SDS011;31949;51.404;-0.038;2022-07-10T06:24:58;1.30;;;0.82;;
46230;SDS011;31949;51.404;-0.038;2022-07-10T06:27:30;2.75;;;1.20;;
46230;SDS011;31949;51.404;-0.038;2022-07-10T06:29:58;2.45;;;1.10;;
46230;SDS011;31949;51.404;-0.038;2022-07-10T06:32:27;1.15;;;0.70;;
46230;SDS011;31949;51.404;-0.038;2022-07-10T06:34:54;3.30;;;1.27;;
46230;SDS011;31949;51.404;-0.038;2022-07-10T06:37:21;2.50;;;1.27;;
46230;SDS011;31949;51.404;-0.038;2022-07-10T06:39:49;1.67;;;0.70;;
46230;SDS011;31949;51.404;-0.038;2022-07-10T06:42:16;1.75;;;0.70;;
46230;SDS011;31949;51.404;-0.038;2022-07-10T06:44:48;2.38;;;0.90;;
46230;SDS011;31949;51.404;-0.038;2022-07-10T06:47:16;3.13;;;1.05;;
46230;SDS011;31949;51.404;-0.038;2022-07-10T06:50:06;2.10;;;1.00;;
46230;SDS011;31949;51.404;-0.038;2022-07-10T06:52:35;2.72;;;1.35;;
46230;SDS011;31949;51.404;-0.038;2022-07-10T06:55:03;2.28;;;1.27;;
46230;SDS011;31949;51.404;-0.038;2022-07-10T06:57:32;1.67;;;0.95;;
46230;SDS011;31949;51.404;-0.038;2022-07-10T06:59:59;4.47;;;1.83;;
46230;SDS011;31949;51.404;-0.038;2022-07-10T07:02:26;4.28;;;1.20;;
46230;SDS011;31949;51.404;-0.038;2022-07-10T07:04:54;4.00;;;1.75;;
46230;SDS011;31949;51.404;-0.038;2022-07-10T07:07:21;2.90;;;0.90;;
46230;SDS011;31949;51.404;-0.038;2022-07-10T07:09:51;2.58;;;1.10;;
46230;SDS011;31949;51.404;-0.038;2022-07-10T07:12:19;1.10;;;1.00;;
46230;SDS011;31949;51.404;-0.038;2022-07-10T07:14:46;1.05;;;0.80;;
46230;SDS011;31949;51.404;-0.038;2022-07-10T07:17:13;4.47;;;0.88;;
46230;SDS011;31949;51.404;-0.038;2022-07-10T07:19:48;1.50;;;0.70;;
46230;SDS011;31949;51.404;-0.038;2022-07-10T07:22:37;1.38;;;0.90;;
46230;SDS011;31949;51.404;-0.038;2022-07-10T07:25:22;2.03;;;1.10;;
46230;SDS011;31949;51.404;-0.038;2022-07-10T07:27:49;2.13;;;1.30;;
46230;SDS011;31949;51.404;-0.038;2022-07-10T07:30:16;1.88;;;0.73;;
46230;SDS011;31949;51.404;-0.038;2022-07-10T07:32:44;1.98;;;0.98;;
46230;SDS011;31949;51.404;-0.038;2022-07-10T07:35:12;3.67;;;1.10;;
46230;SDS011;31949;51.404;-0.038;2022-07-10T07:37:44;4.88;;;1.02;;
46230;SDS011;31949;51.404;-0.038;2022-07-10T07:40:13;1.58;;;1.10;;
46230;SDS011;31949;51.404;-0.038;2022-07-10T07:42:42;2.38;;;1.30;;
46230;SDS011;31949;51.404;-0.038;2022-07-10T07:45:09;1.70;;;0.55;;
46230;SDS011;31949;51.404;-0.038;2022-07-10T07:48:10;1.30;;;1.20;;
46230;SDS011;31949;51.404;-0.038;2022-07-10T07:50:30;2.33;;;1.45;;
46230;SDS011;31949;51.404;-0.038;2022-07-10T07:52:59;3.25;;;1.60;;
46230;SDS011;31949;51.404;-0.038;2022-07-10T07:55:28;2.63;;;1.45;;
46230;SDS011;31949;51.404;-0.038;2022-07-10T07:57:56;3.95;;;1.50;;
46230;SDS011;31949;51.404;-0.038;2022-07-10T08:00:25;2.35;;;1.23;;
46230;SDS011;31949;51.404;-0.038;2022-07-10T08:02:53;1.55;;;1.20;;
46230;SDS011;31949;51.404;-0.038;2022-07-10T08:05:23;3.65;;;1.02;;
46230;SDS011;31949;51.404;-0.038;2022-07-10T08:07:50;2.50;;;0.80;;
46230;SDS011;31949;51.404;-0.038;2022-07-10T08:10:20;2.47;;;1.00;;
46230;SDS011;31949;51.404;-0.038;2022-07-10T08:12:49;1.92;;;1.20;;
46230;SDS011;31949;51.404;-0.038;2022-07-10T08:15:17;2.55;;;1.20;;
46230;SDS011;31949;51.404;-0.038;2022-07-10T08:17:48;3.58;;;1.33;;
46230;SDS011;31949;51.404;-0.038;2022-07-10T08:20:17;2.42;;;1.25;;
46230;SDS011;31949;51.404;-0.038;2022-07-10T08:22:45;2.88;;;1.25;;
46230;SDS011;31949;51.404;-0.038;2022-07-10T08:25:13;1.52;;;1.40;;
46230;SDS011;31949;51.404;-0.038;2022-07-10T08:27:41;3.47;;;0.90;;
46230;SDS011;31949;51.404;-0.038;2022-07-10T08:30:08;2.22;;;1.13;;
46230;SDS011;31949;51.404;-0.038;2022-07-10T08:32:37;2.47;;;1.40;;
46230;SDS011;31949;51.404;-0.038;2022-07-10T08:35:05;1.70;;;1.10;;
46230;SDS011;31949;51.404;-0.038;2022-07-10T08:37:40;4.25;;;1.48;;
46230;SDS011;31949;51.404;-0.038;2022-07-10T08:40:09;1.58;;;1.10;;
46230;SDS011;31949;51.404;-0.038;2022-07-10T08:42:37;3.72;;;2.15;;
46230;SDS011;31949;51.404;-0.038;2022-07-10T08:45:05;1.10;;;1.00;;
46230;SDS011;31949;51.404;-0.038;2022-07-10T08:47:36;2.88;;;1.10;;
46230;SDS011;31949;51.404;-0.038;2022-07-10T08:50:07;2.38;;;1.38;;
46230;SDS011;31949;51.404;-0.038;2022-07-10T08:53:04;5.90;;;1.73;;
46230;SDS011;31949;51.404;-0.038;2022-07-10T08:55:36;2.60;;;1.02;;
46230;SDS011;31949;51.404;-0.038;2022-07-10T08:58:03;1.23;;;1.10;;
46230;SDS011;31949;51.404;-0.038;2022-07-10T09:00:32;2.25;;;1.85;;
46230;SDS011;31949;51.404;-0.038;2022-07-10T09:02:59;4.03;;;1.75;;
46230;SDS011;31949;51.404;-0.038;2022-07-10T09:05:27;2.30;;;1.33;;
46230;SDS011;31949;51.404;-0.038;2022-07-10T09:07:54;1.33;;;1.20;;
46230;SDS011;31949;51.404;-0.038;2022-07-10T09:10:24;5.05;;;1.55;;
46230;SDS011;31949;51.404;-0.038;2022-07-10T09:12:53;2.20;;;1.60;;
46230;SDS011;31949;51.404;-0.038;2022-07-10T09:15:22;3.97;;;1.85;;
46230;SDS011;31949;51.404;-0.038;2022-07-10T09:17:54;3.05;;;1.60;;
46230;SDS011;31949;51.404;-0.038;2022-07-10T09:20:27;5.00;;;2.22;;
46230;SDS011;31949;51.404;-0.038;2022-07-10T09:22:59;4.43;;;1.70;;
46230;SDS011;31949;51.404;-0.038;2022-07-10T09:25:47;2.63;;;1.92;;
46230;SDS011;31949;51.404;-0.038;2022-07-10T09:28:19;3.13;;;1.20;;
46230;SDS011;31949;51.404;-0.038;2022-07-10T09:30:48;1.95;;;1.40;;
46230;SDS011;31949;51.404;-0.038;2022-07-10T09:41:12;2.22;;;1.58;;
46230;SDS011;31949;51.404;-0.038;2022-07-10T09:43:50;2.67;;;1.50;;
46230;SDS011;31949;51.404;-0.038;2022-07-10T09:46:19;2.95;;;1.25;;
46230;SDS011;31949;51.404;-0.038;2022-07-10T09:48:48;3.22;;;1.73;;
46230;SDS011;31949;51.404;-0.038;2022-07-10T09:51:30;2.47;;;1.58;;
46230;SDS011;31949;51.404;-0.038;2022-07-10T09:54:00;1.25;;;1.15;;
46230;SDS011;31949;51.404;-0.038;2022-07-10T09:59:11;4.93;;;1.55;;
46230;SDS011;31949;51.404;-0.038;2022-07-10T10:01:47;1.38;;;1.25;;
46230;SDS011;31949;51.404;-0.038;2022-07-10T10:04:16;3.10;;;1.23;;
46230;SDS011;31949;51.404;-0.038;2022-07-10T10:06:51;3.67;;;1.63;;
46230;SDS011;31949;51.404;-0.038;2022-07-10T10:09:26;1.58;;;1.35;;
46230;SDS011;31949;51.404;-0.038;2022-07-10T10:12:01;2.58;;;1.27;;
46230;SDS011;31949;51.404;-0.038;2022-07-10T10:14:33;3.65;;;1.48;;
46230;SDS011;31949;51.404;-0.038;2022-07-10T10:17:02;2.58;;;1.40;;
46230;SDS011;31949;51.404;-0.038;2022-07-10T10:19:33;2.88;;;1.25;;
46230;SDS011;31949;51.404;-0.038;2022-07-10T10:22:19;1.50;;;1.38;;
46230;SDS011;31949;51.404;-0.038;2022-07-10T10:24:48;2.55;;;1.63;;
46230;SDS011;31949;51.404;-0.038;2022-07-10T10:27:16;1.95;;;1.60;;
46230;SDS011;31949;51.404;-0.038;2022-07-10T10:29:44;2.13;;;1.33;;
46230;SDS011;31949;51.404;-0.038;2022-07-10T10:32:12;2.22;;;1.40;;
46230;SDS011;31949;51.404;-0.038;2022-07-10T10:34:43;3.47;;;1.98;;
46230;SDS011;31949;51.404;-0.038;2022-07-10T10:39:54;2.15;;;1.17;;
46230;SDS011;31949;51.404;-0.038;2022-07-10T10:42:31;1.95;;;1.15;;
46230;SDS011;31949;51.404;-0.038;2022-07-10T10:45:46;2.72;;;1.60;;
46230;SDS011;31949;51.404;-0.038;2022-07-10T10:50:51;2.53;;;1.33;;
46230;SDS011;31949;51.404;-0.038;2022-07-10T11:09:25;1.67;;;1.50;;
46230;SDS011;31949;51.404;-0.038;2022-07-10T11:12:00;1.42;;;0.98;;
46230;SDS011;31949;51.404;-0.038;2022-07-10T11:14:33;2.83;;;1.30;;
46230;SDS011;31949;51.404;-0.038;2022-07-10T11:17:09;2.45;;;1.67;;
46230;SDS011;31949;51.404;-0.038;2022-07-10T11:19:36;1.48;;;1.10;;
46230;SDS011;31949;51.404;-0.038;2022-07-10T11:25:28;2.78;;;1.42;;
46230;SDS011;31949;51.404;-0.038;2022-07-10T11:31:27;1.70;;;1.27;;
46230;SDS011;31949;51.404;-0.038;2022-07-10T11:33:56;3.97;;;2.08;;
46230;SDS011;31949;51.404;-0.038;2022-07-10T11:36:24;1.20;;;1.10;;
46230;SDS011;31949;51.404;-0.038;2022-07-10T11:39:02;5.05;;;1.65;;
46230;SDS011;31949;51.404;-0.038;2022-07-10T11:41:31;2.83;;;1.40;;
46230;SDS011;31949;51.404;-0.038;2022-07-10T11:44:00;3.60;;;1.30;;
46230;SDS011;31949;51.404;-0.038;2022-07-10T11:46:34;1.27;;;1.13;;
46230;SDS011;31949;51.404;-0.038;2022-07-10T11:49:02;2.65;;;1.48;;
46230;SDS011;31949;51.404;-0.038;2022-07-10T11:51:32;3.08;;;1.67;;
46230;SDS011;31949;51.404;-0.038;2022-07-10T11:54:10;2.03;;;1.58;;
46230;SDS011;31949;51.404;-0.038;2022-07-10T11:56:46;2.50;;;1.70;;
46230;SDS011;31949;51.404;-0.038;2022-07-10T11:59:15;2.13;;;1.40;;
46230;SDS011;31949;51.404;-0.038;2022-07-10T12:04:11;1.23;;;1.10;;
46230;SDS011;31949;51.404;-0.038;2022-07-10T12:06:41;1.95;;;1.42;;
46230;SDS011;31949;51.404;-0.038;2022-07-10T12:09:11;1.67;;;1.13;;
46230;SDS011;31949;51.404;-0.038;2022-07-10T12:12:02;2.35;;;1.30;;
46230;SDS011;31949;51.404;-0.038;2022-07-10T12:14:32;1.63;;;1.10;;
46230;SDS011;31949;51.404;-0.038;2022-07-10T12:16:59;2.30;;;1.30;;
46230;SDS011;31949;51.404;-0.038;2022-07-10T12:19:37;2.08;;;1.50;;
46230;SDS011;31949;51.404;-0.038;2022-07-10T12:22:05;2.15;;;1.13;;
46230;SDS011;31949;51.404;-0.038;2022-07-10T12:24:33;2.75;;;1.30;;
46230;SDS011;31949;51.404;-0.038;2022-07-10T12:27:01;2.97;;;1.27;;
46230;SDS011;31949;51.404;-0.038;2022-07-10T12:29:29;3.53;;;1.23;;
46230;SDS011;31949;51.404;-0.038;2022-07-10T12:32:00;2.10;;;1.50;;
46230;SDS011;31949;51.404;-0.038;2022-07-10T12:34:38;2.08;;;1.58;;
46230;SDS011;31949;51.404;-0.038;2022-07-10T12:37:10;3.40;;;1.30;;
46230;SDS011;31949;51.404;-0.038;2022-07-10T12:39:45;2.60;;;1.40;;
46230;SDS011;31949;51.404;-0.038;2022-07-10T12:42:29;2.03;;;1.70;;
46230;SDS011;31949;51.404;-0.038;2022-07-10T12:45:12;2.85;;;1.95;;
46230;SDS011;31949;51.404;-0.038;2022-07-10T12:47:44;2.63;;;1.38;;
46230;SDS011;31949;51.404;-0.038;2022-07-10T12:50:15;2.03;;;1.33;;
46230;SDS011;31949;51.404;-0.038;2022-07-10T12:52:46;2.40;;;0.98;;
46230;SDS011;31949;51.404;-0.038;2022-07-10T12:57:49;1.70;;;1.20;;
46230;SDS011;31949;51.404;-0.038;2022-07-10T13:00:20;2.65;;;1.20;;
46230;SDS011;31949;51.404;-0.038;2022-07-10T13:03:01;1.77;;;1.42;;
46230;SDS011;31949;51.404;-0.038;2022-07-10T13:05:42;2.65;;;1.25;;
46230;SDS011;31949;51.404;-0.038;2022-07-10T13:08:16;3.03;;;1.65;;
46230;SDS011;31949;51.404;-0.038;2022-07-10T13:13:25;1.83;;;1.17;;
46230;SDS011;31949;51.404;-0.038;2022-07-10T13:15:52;1.40;;;1.13;;
46230;SDS011;31949;51.404;-0.038;2022-07-10T13:18:21;3.17;;;1.65;;
46230;SDS011;31949;51.404;-0.038;2022-07-10T13:20:50;1.77;;;1.40;;
46230;SDS011;31949;51.404;-0.038;2022-07-10T13:23:26;2.33;;;1.67;;
46230;SDS011;31949;51.404;-0.038;2022-07-10T13:25:54;4.03;;;2.83;;
46230;SDS011;31949;51.404;-0.038;2022-07-10T13:28:22;6.05;;;4.05;;
46230;SDS011;31949;51.404;-0.038;2022-07-10T13:30:50;4.20;;;1.67;;
46230;SDS011;31949;51.404;-0.038;2022-07-10T13:33:17;4.18;;;1.80;;
46230;SDS011;31949;51.404;-0.038;2022-07-10T13:35:45;4.32;;;1.65;;
46230;SDS011;31949;51.404;-0.038;2022-07-10T13:38:12;1.60;;;1.40;;
46230;SDS011;31949;51.404;-0.038;2022-07-10T13:40:43;2.10;;;1.65;;
46230;SDS011;31949;51.404;-0.038;2022-07-10T13:43:11;2.58;;;1.70;;
46230;SDS011;31949;51.404;-0.038;2022-07-10T13:45:47;2.30;;;1.52;;
46230;SDS011;31949;51.404;-0.038;2022-07-10T13:48:15;1.40;;;1.30;;
46230;SDS011;31949;51.404;-0.038;2022-07-10T13:50:43;1.40;;;1.30;;
46230;SDS011;31949;51.404;-0.038;2022-07-10T13:53:16;2.33;;;1.80;;
46230;SDS011;31949;51.404;-0.038;2022-07-10T13:55:44;3.60;;;1.70;;
46230;SDS011;31949;51.404;-0.038;2022-07-10T13:58:12;3.40;;;1.80;;
46230;SDS011;31949;51.404;-0.038;2022-07-10T14:00:40;2.05;;;1.65;;
46230;SDS011;31949;51.404;-0.038;2022-07-10T14:03:08;4.13;;;1.42;;
46230;SDS011;31949;51.404;-0.038;2022-07-10T14:05:36;1.92;;;1.83;;
46230;SDS011;31949;51.404;-0.038;2022-07-10T14:08:04;3.65;;;1.60;;
46230;SDS011;31949;51.404;-0.038;2022-07-10T14:10:31;1.63;;;1.40;;
46230;SDS011;31949;51.404;-0.038;2022-07-10T14:12:58;1.63;;;1.40;;
46230;SDS011;31949;51.404;-0.038;2022-07-10T14:15:25;1.30;;;1.17;;
46230;SDS011;31949;51.404;-0.038;2022-07-10T14:17:53;2.13;;;1.55;;
46230;SDS011;31949;51.404;-0.038;2022-07-10T14:20:21;3.08;;;1.60;;
46230;SDS011;31949;51.404;-0.038;2022-07-10T14:22:49;2.00;;;1.40;;
46230;SDS011;31949;51.404;-0.038;2022-07-10T14:25:16;2.80;;;1.38;;
46230;SDS011;31949;51.404;-0.038;2022-07-10T14:27:45;1.92;;;1.60;;
46230;SDS011;31949;51.404;-0.038;2022-07-10T14:30:13;1.90;;;1.75;;
46230;SDS011;31949;51.404;-0.038;2022-07-10T14:32:40;2.28;;;1.67;;
46230;SDS011;31949;51.404;-0.038;2022-07-10T14:35:07;2.30;;;1.63;;
46230;SDS011;31949;51.404;-0.038;2022-07-10T14:37:35;2.20;;;1.90;;
46230;SDS011;31949;51.404;-0.038;2022-07-10T14:40:02;6.22;;;1.27;;
46230;SDS011;31949;51.404;-0.038;2022-07-10T14:42:30;2.20;;;1.33;;
46230;SDS011;31949;51.404;-0.038;2022-07-10T14:44:57;1.45;;;1.10;;
46230;SDS011;31949;51.404;-0.038;2022-07-10T14:47:24;2.47;;;1.45;;
46230;SDS011;31949;51.404;-0.038;2022-07-10T14:49:55;1.60;;;1.15;;
46230;SDS011;31949;51.404;-0.038;2022-07-10T14:52:22;1.58;;;1.10;;
46230;SDS011;31949;51.404;-0.038;2022-07-10T14:54:52;1.52;;;0.90;;
46230;SDS011;31949;51.404;-0.038;2022-07-10T14:57:19;3.85;;;1.40;;
46230;SDS011;31949;51.404;-0.038;2022-07-10T14:59:46;1.55;;;1.30;;
46230;SDS011;31949;51.404;-0.038;2022-07-10T15:02:13;2.55;;;1.40;;
46230;SDS011;31949;51.404;-0.038;2022-07-10T15:04:40;2.92;;;1.52;;
46230;SDS011;31949;51.404;-0.038;2022-07-10T15:07:08;2.45;;;1.60;;
46230;SDS011;31949;51.404;-0.038;2022-07-10T15:09:35;1.58;;;1.15;;
46230;SDS011;31949;51.404;-0.038;2022-07-10T15:12:02;1.85;;;1.55;;
46230;SDS011;31949;51.404;-0.038;2022-07-10T15:14:30;2.05;;;1.55;;
46230;SDS011;31949;51.404;-0.038;2022-07-10T15:16:57;1.40;;;1.30;;
46230;SDS011;31949;51.404;-0.038;2022-07-10T15:19:24;4.22;;;1.70;;
46230;SDS011;31949;51.404;-0.038;2022-07-10T15:21:51;2.38;;;1.40;;
46230;SDS011;31949;51.404;-0.038;2022-07-10T15:24:18;2.03;;;1.25;;
46230;SDS011;31949;51.404;-0.038;2022-07-10T15:26:46;2.17;;;1.08;;
46230;SDS011;31949;51.404;-0.038;2022-07-10T15:29:13;1.65;;;1.48;;
46230;SDS011;31949;51.404;-0.038;2022-07-10T15:31:40;4.85;;;1.80;;